createdAt,value
2023-11-23T00:00:27.113Z,101969.31
2023-11-23T00:02:53.383Z,101971.88
2023-11-23T00:08:03.809Z,101975.28
2023-11-23T00:10:30.103Z,101974.41
2023-11-23T00:12:56.366Z,101967.47
2023-11-23T00:15:22.645Z,101961.47
2023-11-23T00:20:29.022Z,101963.84
2023-11-23T00:22:57.723Z,101960.41
2023-11-23T00:25:25.545Z,101962.19
2023-11-23T00:27:51.758Z,101948.47
2023-11-23T00:30:18.004Z,101949.41
2023-11-23T00:32:44.398Z,101946.06
2023-11-23T00:35:10.749Z,101927.97
2023-11-23T00:37:36.964Z,101948.66
2023-11-23T00:40:03.238Z,101952.94
2023-11-23T00:42:31.704Z,101954.75
2023-11-23T00:44:57.956Z,101943.59
2023-11-23T00:47:24.300Z,101943.69
2023-11-23T00:49:51.352Z,101935.97
2023-11-23T00:52:17.566Z,101934.25
2023-11-23T00:54:46.030Z,101918.81
2023-11-23T00:57:22.792Z,101916.25
2023-11-23T00:59:49.027Z,101919.53
2023-11-23T01:02:15.334Z,101915.16
2023-11-23T01:04:41.628Z,101919.34
2023-11-23T01:07:07.825Z,101915.81
2023-11-23T01:09:34.029Z,101913.94
2023-11-23T01:12:00.399Z,101912.06
2023-11-23T01:14:26.623Z,101919.66
2023-11-23T01:16:52.893Z,101918.72
2023-11-23T01:19:19.114Z,101905.81
2023-11-23T01:21:45.354Z,101907.47
2023-11-23T01:24:12.427Z,101908.25
2023-11-23T01:26:38.782Z,101901.34
2023-11-23T01:29:05.030Z,101897.00
2023-11-23T01:31:31.240Z,101898.66
2023-11-23T01:33:57.639Z,101901.16
2023-11-23T01:36:23.927Z,101908.81
2023-11-23T01:38:50.159Z,101894.19
2023-11-23T01:41:16.441Z,101899.28
2023-11-23T01:43:42.668Z,101896.66
2023-11-23T01:46:08.944Z,101899.22
2023-11-23T01:48:35.280Z,101888.03
2023-11-23T01:51:01.636Z,101889.81
2023-11-23T01:53:27.893Z,101886.38
2023-11-23T01:55:54.115Z,101881.25
2023-11-23T01:58:20.383Z,101876.13
2023-11-23T02:00:46.597Z,101873.47
2023-11-23T02:03:12.912Z,101883.75
2023-11-23T02:05:39.489Z,101882.78
2023-11-23T02:08:05.784Z,101879.34
2023-11-23T02:10:32.003Z,101883.56
2023-11-23T02:12:58.229Z,101883.53
2023-11-23T02:15:24.450Z,101882.66
2023-11-23T02:17:51.824Z,101887.72
2023-11-23T02:20:18.122Z,101879.97
2023-11-23T02:22:44.372Z,101879.09
2023-11-23T02:25:10.636Z,101882.53
2023-11-23T02:27:36.884Z,101879.91
2023-11-23T02:30:03.305Z,101868.75
2023-11-23T02:32:29.625Z,101859.31
2023-11-23T02:34:55.807Z,101855.94
2023-11-23T02:37:22.044Z,101853.53
2023-11-23T02:39:48.301Z,101848.31
2023-11-23T02:42:14.550Z,101850.00
2023-11-23T02:44:40.824Z,101833.66
2023-11-23T02:49:57.469Z,101834.50
2023-11-23T02:52:23.690Z,101837.06
2023-11-23T02:54:49.885Z,101837.06
2023-11-23T02:57:16.173Z,101837.94
2023-11-23T02:59:42.449Z,101833.44
2023-11-23T03:02:08.730Z,101844.66
2023-11-23T03:04:35.007Z,101839.53
2023-11-23T03:07:01.223Z,101812.25
2023-11-23T03:09:27.508Z,101807.03
2023-11-23T03:11:53.790Z,101807.06
2023-11-23T03:14:20.033Z,101810.38
2023-11-23T03:16:46.262Z,101799.22
2023-11-23T03:19:12.511Z,101800.00
2023-11-23T03:21:38.847Z,101802.50
2023-11-23T03:24:05.189Z,101800.78
2023-11-23T03:26:31.459Z,101808.38
2023-11-23T03:28:57.654Z,101799.91
2023-11-23T03:31:23.836Z,101788.78
2023-11-23T03:33:50.108Z,101793.91
2023-11-23T03:36:16.334Z,101797.34
2023-11-23T03:38:42.593Z,101787.97
2023-11-23T03:41:08.835Z,101784.56
2023-11-23T03:43:35.127Z,101791.50
2023-11-23T03:46:01.422Z,101794.88
2023-11-23T03:48:27.756Z,101806.00
2023-11-23T03:50:54.026Z,101806.84
2023-11-23T03:53:20.210Z,101802.53
2023-11-23T03:55:46.378Z,101797.34
2023-11-23T03:58:12.583Z,101803.38
2023-11-23T04:00:38.764Z,101792.25
2023-11-23T04:03:04.983Z,101789.66
2023-11-23T04:05:31.197Z,101800.78
2023-11-23T04:07:57.421Z,101789.59
2023-11-23T04:10:23.645Z,101786.19
2023-11-23T04:12:51.965Z,101787.03
2023-11-23T04:15:18.569Z,101783.66
2023-11-23T04:17:44.911Z,101788.78
2023-11-23T04:20:11.211Z,101787.94
2023-11-23T04:22:37.518Z,101776.00
2023-11-23T04:25:03.737Z,101778.69
2023-11-23T04:27:29.992Z,101781.09
2023-11-23T04:29:56.281Z,101780.19
2023-11-23T04:32:22.469Z,101768.22
2023-11-23T04:34:48.718Z,101771.59
2023-11-23T04:37:14.948Z,101768.09
2023-11-23T04:39:41.268Z,101768.91
2023-11-23T04:42:07.567Z,101778.31
2023-11-23T04:44:33.793Z,101767.25
2023-11-23T04:46:59.971Z,101772.34
2023-11-23T04:49:26.235Z,101769.75
2023-11-23T04:51:52.462Z,101775.75
2023-11-23T04:54:18.679Z,101772.38
2023-11-23T04:56:44.952Z,101766.44
2023-11-23T04:59:11.182Z,101764.72
2023-11-23T05:01:37.434Z,101766.31
2023-11-23T05:04:05.941Z,101770.50
2023-11-23T05:06:32.619Z,101760.22
2023-11-23T05:08:58.832Z,101762.78
2023-11-23T05:11:25.041Z,101757.75
2023-11-23T05:13:51.267Z,101751.19
2023-11-23T05:16:17.562Z,101759.78
2023-11-23T05:18:44.669Z,101759.91
2023-11-23T05:21:14.578Z,101749.84
2023-11-23T05:23:40.845Z,101748.28
2023-11-23T05:26:07.052Z,101748.28
2023-11-23T05:28:33.237Z,101755.09
2023-11-23T05:30:59.467Z,101763.72
2023-11-23T05:33:28.819Z,101756.03
2023-11-23T05:35:55.126Z,101762.16
2023-11-23T05:38:21.397Z,101760.66
2023-11-23T05:40:47.600Z,101757.38
2023-11-23T05:43:13.833Z,101756.63
2023-11-23T05:45:40.038Z,101751.75
2023-11-23T05:48:06.314Z,101743.97
2023-11-23T05:50:32.642Z,101762.16
2023-11-23T05:52:58.824Z,101777.63
2023-11-23T05:55:25.005Z,101774.28
2023-11-23T05:57:51.213Z,101776.06
2023-11-23T06:00:17.410Z,101780.44
2023-11-23T06:02:43.688Z,101783.06
2023-11-23T06:05:10.095Z,101779.75
2023-11-23T06:07:36.419Z,101782.38
2023-11-23T06:10:02.667Z,101776.44
2023-11-23T06:12:28.915Z,101789.34
2023-11-23T06:14:55.177Z,101786.97
2023-11-23T06:17:21.441Z,101791.31
2023-11-23T06:19:47.622Z,101799.06
2023-11-23T06:22:13.795Z,101809.41
2023-11-23T06:24:40.024Z,101818.22
2023-11-23T06:27:06.225Z,101817.47
2023-11-23T06:29:32.463Z,101814.03
2023-11-23T06:32:01.222Z,101815.78
2023-11-23T06:34:28.273Z,101818.38
2023-11-23T06:36:54.509Z,101819.31
2023-11-23T06:39:20.759Z,101825.38
2023-11-23T06:41:46.991Z,101816.91
2023-11-23T06:44:13.216Z,101815.16
2023-11-23T06:46:39.629Z,101809.22
2023-11-23T06:49:07.935Z,101805.88
2023-11-23T06:51:34.303Z,101804.22
2023-11-23T06:54:00.586Z,101800.91
2023-11-23T06:56:26.868Z,101810.44
2023-11-23T06:58:53.074Z,101814.69
2023-11-23T07:01:19.366Z,101815.56
2023-11-23T07:03:45.753Z,101807.91
2023-11-23T07:06:12.305Z,101813.06
2023-11-23T07:08:38.535Z,101804.56
2023-11-23T07:11:06.855Z,101810.63
2023-11-23T07:13:33.062Z,101816.66
2023-11-23T07:15:59.279Z,101824.44
2023-11-23T07:18:25.618Z,101810.78
2023-11-23T07:20:51.958Z,101816.84
2023-11-23T07:23:18.194Z,101818.63
2023-11-23T07:25:44.425Z,101835.84
2023-11-23T07:28:10.674Z,101836.75
2023-11-23T07:30:36.932Z,101836.78
2023-11-23T07:33:03.307Z,101843.66
2023-11-23T07:35:29.603Z,101849.72
2023-11-23T07:37:55.816Z,101848.91
2023-11-23T07:40:22.060Z,101860.09
2023-11-23T07:42:49.525Z,101855.81
2023-11-23T07:45:15.838Z,101858.41
2023-11-23T07:47:42.112Z,101859.31
2023-11-23T07:50:08.349Z,101855.88
2023-11-23T07:52:34.602Z,101861.06
2023-11-23T07:55:00.841Z,101845.63
2023-11-23T07:57:27.065Z,101849.91
2023-11-23T07:59:53.324Z,101837.94
2023-11-23T08:02:19.546Z,101841.41
2023-11-23T08:04:45.775Z,101830.25
2023-11-23T08:07:12.030Z,101824.25
2023-11-23T08:09:38.248Z,101823.44
2023-11-23T08:12:04.475Z,101832.06
2023-11-23T08:14:30.696Z,101815.78
2023-11-23T08:16:56.964Z,101820.06
2023-11-23T08:19:23.718Z,101837.28
2023-11-23T08:21:50.828Z,101812.38
2023-11-23T08:24:17.312Z,101815.81
2023-11-23T08:26:43.563Z,101829.63
2023-11-23T08:29:09.737Z,101821.03
2023-11-23T08:31:35.998Z,101811.59
2023-11-23T08:34:02.208Z,101800.44
2023-11-23T08:36:28.495Z,101797.88
2023-11-23T08:38:54.780Z,101798.72
2023-11-23T08:41:21.052Z,101797.91
2023-11-23T08:43:47.414Z,101796.19
2023-11-23T08:46:13.710Z,101795.34
2023-11-23T08:48:39.951Z,101787.59
2023-11-23T08:51:06.343Z,101797.06
2023-11-23T08:53:32.616Z,101794.50
2023-11-23T08:55:58.891Z,101794.50
2023-11-23T08:58:25.104Z,101795.38
2023-11-23T09:00:51.318Z,101796.22
2023-11-23T09:03:17.579Z,101800.53
2023-11-23T09:05:43.960Z,101794.53
2023-11-23T09:08:10.264Z,101799.69
2023-11-23T09:10:36.502Z,101785.91
2023-11-23T09:13:02.745Z,101777.28
2023-11-23T09:15:29.002Z,101766.13
2023-11-23T09:17:55.261Z,101770.41
2023-11-23T09:20:21.540Z,101770.44
2023-11-23T09:22:47.822Z,101762.66
2023-11-23T09:25:14.044Z,101771.25
2023-11-23T09:27:40.330Z,101784.19
2023-11-23T09:30:06.624Z,101775.56
2023-11-23T09:32:32.830Z,101767.81
2023-11-23T09:34:59.099Z,101769.53
2023-11-23T09:37:25.314Z,101763.47
2023-11-23T09:39:51.558Z,101764.31
2023-11-23T09:42:17.792Z,101766.91
2023-11-23T09:44:44.042Z,101769.44
2023-11-23T09:47:10.300Z,101774.59
2023-11-23T09:49:36.639Z,101776.31
2023-11-23T09:52:02.954Z,101764.25
2023-11-23T09:54:29.236Z,101759.91
2023-11-23T09:56:55.552Z,101765.06
2023-11-23T09:59:21.849Z,101765.94
2023-11-23T10:01:48.177Z,101760.78
2023-11-23T10:04:14.509Z,101747.88
2023-11-23T10:06:40.809Z,101755.63
2023-11-23T10:09:07.187Z,101754.75
2023-11-23T10:11:33.393Z,101733.19
2023-11-23T10:13:59.835Z,101728.84
2023-11-23T10:16:26.161Z,101716.81
2023-11-23T10:18:56.177Z,101716.84
2023-11-23T10:21:22.513Z,101704.72
2023-11-23T10:23:49.770Z,101696.13
2023-11-23T10:26:16.018Z,101691.81
2023-11-23T10:28:42.718Z,101684.03
2023-11-23T10:31:12.206Z,101693.44
2023-11-23T10:33:40.099Z,101708.16
2023-11-23T10:36:06.387Z,101700.31
2023-11-23T10:38:39.173Z,101695.16
2023-11-23T10:41:09.900Z,101695.94
2023-11-23T10:43:36.152Z,101694.31
2023-11-23T10:46:02.463Z,101683.97
2023-11-23T10:48:28.758Z,101681.41
2023-11-23T10:50:56.342Z,101681.41
2023-11-23T10:53:27.716Z,101667.59
2023-11-23T10:55:53.918Z,101663.22
2023-11-23T10:58:20.147Z,101658.03
2023-11-23T11:00:47.629Z,101652.84
2023-11-23T11:03:13.846Z,101657.22
2023-11-23T11:05:40.162Z,101646.03
2023-11-23T11:08:06.424Z,101637.38
2023-11-23T11:10:32.608Z,101637.31
2023-11-23T11:13:00.731Z,101634.75
2023-11-23T11:15:28.385Z,101638.19
2023-11-23T11:17:55.102Z,101626.97
2023-11-23T11:20:21.323Z,101632.97
2023-11-23T11:22:47.526Z,101624.31
2023-11-23T11:25:13.774Z,101624.38
2023-11-23T11:27:40.054Z,101624.34
2023-11-23T11:30:06.334Z,101623.44
2023-11-23T11:32:32.597Z,101610.56
2023-11-23T11:34:58.822Z,101602.72
2023-11-23T11:37:25.051Z,101600.00
2023-11-23T11:39:51.272Z,101593.94
2023-11-23T11:42:17.576Z,101587.03
2023-11-23T11:44:43.822Z,101581.00
2023-11-23T11:47:10.019Z,101580.09
2023-11-23T11:49:36.281Z,101566.31
2023-11-23T11:52:02.477Z,101565.41
2023-11-23T11:54:28.805Z,101567.94
2023-11-23T11:56:55.100Z,101562.66
2023-11-23T11:59:21.332Z,101575.66
2023-11-23T12:01:47.592Z,101575.69
2023-11-23T12:04:13.927Z,101587.69
2023-11-23T12:06:40.234Z,101571.38
2023-11-23T12:09:10.862Z,101576.59
2023-11-23T12:11:37.983Z,101575.72
2023-11-23T12:14:06.229Z,101577.50
2023-11-23T12:19:15.325Z,101555.13
2023-11-23T12:21:41.614Z,101552.50
2023-11-23T12:24:07.939Z,101542.94
2023-11-23T12:26:34.176Z,101536.94
2023-11-23T12:29:02.600Z,101523.94
2023-11-23T12:31:29.124Z,101522.22
2023-11-23T12:33:55.488Z,101522.16
2023-11-23T12:36:21.769Z,101501.34
2023-11-23T12:38:48.000Z,101500.50
2023-11-23T12:41:14.205Z,101496.25
2023-11-23T12:43:40.473Z,101506.53
2023-11-23T12:46:06.888Z,101498.81
2023-11-23T12:48:33.249Z,101508.94
2023-11-23T12:50:59.549Z,101508.16
2023-11-23T12:53:27.587Z,101509.09
2023-11-23T12:55:53.904Z,101499.53
2023-11-23T12:58:20.162Z,101502.94
2023-11-23T13:00:46.439Z,101493.50
2023-11-23T13:03:12.686Z,101486.63
2023-11-23T13:05:39.008Z,101473.78
2023-11-23T13:08:05.229Z,101474.72
2023-11-23T13:10:33.464Z,101470.28
2023-11-23T13:12:59.703Z,101461.59
2023-11-23T13:15:28.406Z,101465.97
2023-11-23T13:17:56.543Z,101464.25
2023-11-23T13:20:22.950Z,101466.00
2023-11-23T13:22:49.447Z,101444.44
2023-11-23T13:25:15.720Z,101428.13
2023-11-23T13:27:42.029Z,101414.28
2023-11-23T13:30:08.285Z,101409.03
2023-11-23T13:32:34.611Z,101414.28
2023-11-23T13:35:03.143Z,101423.59
2023-11-23T13:37:31.552Z,101422.78
2023-11-23T13:39:57.770Z,101419.38
2023-11-23T13:42:24.064Z,101408.09
2023-11-23T13:44:50.398Z,101403.13
2023-11-23T13:47:16.628Z,101399.72
2023-11-23T13:49:42.895Z,101389.25
2023-11-23T13:52:09.134Z,101390.97
2023-11-23T13:54:35.408Z,101382.31
2023-11-23T13:57:01.939Z,101378.81
2023-11-23T13:59:28.132Z,101377.09
2023-11-23T14:01:54.927Z,101384.81
2023-11-23T14:04:21.308Z,101378.81
2023-11-23T14:06:47.624Z,101393.47
2023-11-23T14:09:13.999Z,101387.47
2023-11-23T14:11:40.185Z,101385.66
2023-11-23T14:14:06.410Z,101383.91
2023-11-23T14:16:32.659Z,101377.94
2023-11-23T14:18:58.951Z,101371.03
2023-11-23T14:21:26.931Z,101380.56
2023-11-23T14:23:54.569Z,101373.59
2023-11-23T14:26:20.861Z,101372.75
2023-11-23T14:28:47.138Z,101379.59
2023-11-23T14:31:13.372Z,101353.72
2023-11-23T14:33:39.700Z,101355.50
2023-11-23T14:36:06.068Z,101353.72
2023-11-23T14:38:34.844Z,101360.63
2023-11-23T14:41:01.085Z,101376.16
2023-11-23T14:43:32.948Z,101370.97
2023-11-23T14:45:59.240Z,101366.66
2023-11-23T14:48:25.554Z,101355.50
2023-11-23T14:50:51.812Z,101345.06
2023-11-23T14:53:18.051Z,101336.56
2023-11-23T14:55:44.293Z,101335.56
2023-11-23T14:58:10.591Z,101327.97
2023-11-23T15:00:36.969Z,101327.03
2023-11-23T15:03:03.357Z,101327.03
2023-11-23T15:05:29.647Z,101333.19
2023-11-23T15:07:57.127Z,101328.84
2023-11-23T15:10:23.534Z,101324.53
2023-11-23T15:12:49.821Z,101328.03
2023-11-23T15:15:16.131Z,101336.63
2023-11-23T15:17:42.385Z,101334.78
2023-11-23T15:20:08.624Z,101340.06
2023-11-23T15:22:34.862Z,101325.47
2023-11-23T15:25:08.228Z,101297.69
2023-11-23T15:27:36.739Z,101290.78
2023-11-23T15:30:03.043Z,101295.09
2023-11-23T15:32:29.381Z,101293.28
2023-11-23T15:34:55.596Z,101290.72
2023-11-23T15:37:24.258Z,101275.25
2023-11-23T15:39:50.646Z,101273.47
2023-11-23T15:42:16.904Z,101273.47
2023-11-23T15:44:43.181Z,101248.41
2023-11-23T15:47:09.359Z,101246.56
2023-11-23T15:49:35.585Z,101251.84
2023-11-23T15:52:01.777Z,101237.19
2023-11-23T15:54:28.027Z,101251.81
2023-11-23T15:56:54.250Z,101258.69
2023-11-23T15:59:20.419Z,101250.09
2023-11-23T16:01:46.719Z,101237.28
2023-11-23T16:04:13.085Z,101226.00
2023-11-23T16:06:39.393Z,101230.31
2023-11-23T16:09:05.610Z,101235.38
2023-11-23T16:11:31.847Z,101256.06
2023-11-23T16:13:58.107Z,101248.38
2023-11-23T16:16:24.367Z,101235.38
2023-11-23T16:18:50.623Z,101237.88
2023-11-23T16:21:16.881Z,101231.91
2023-11-23T16:23:43.093Z,101210.34
2023-11-23T16:26:09.305Z,101224.06
2023-11-23T16:28:35.555Z,101224.94
2023-11-23T16:31:01.861Z,101216.28
2023-11-23T16:33:28.197Z,101221.44
2023-11-23T16:35:54.434Z,101225.72
2023-11-23T16:38:20.645Z,101229.09
2023-11-23T16:40:46.916Z,101216.09
2023-11-23T16:43:13.166Z,101210.91
2023-11-23T16:45:39.447Z,101211.03
2023-11-23T16:48:05.809Z,101205.88
2023-11-23T16:50:32.221Z,101198.13
2023-11-23T16:52:58.442Z,101197.13
2023-11-23T16:55:24.638Z,101204.03
2023-11-23T16:57:50.911Z,101213.50
2023-11-23T17:00:19.785Z,101202.16
2023-11-23T17:02:46.050Z,101196.13
2023-11-23T17:05:12.298Z,101194.41
2023-11-23T17:07:38.460Z,101211.53
2023-11-23T17:10:04.695Z,101211.50
2023-11-23T17:12:30.946Z,101206.38
2023-11-23T17:14:57.467Z,101198.66
2023-11-23T17:17:23.735Z,101192.50
2023-11-23T17:19:50.034Z,101190.66
2023-11-23T17:22:16.221Z,101195.75
2023-11-23T17:24:42.940Z,101187.97
2023-11-23T17:27:09.367Z,101191.47
2023-11-23T17:29:35.610Z,101187.03
2023-11-23T17:34:45.856Z,101176.75
2023-11-23T17:37:12.210Z,101175.00
2023-11-23T17:39:38.395Z,101165.47
2023-11-23T17:42:04.605Z,101169.66
2023-11-23T17:44:30.817Z,101173.09
2023-11-23T17:46:57.990Z,101180.69
2023-11-23T17:49:24.224Z,101183.94
2023-11-23T17:51:50.509Z,101181.34
2023-11-23T17:54:16.799Z,101171.00
2023-11-23T17:56:43.042Z,101155.31
2023-11-23T17:59:24.799Z,101153.56
2023-11-23T18:01:55.522Z,101152.69
2023-11-23T18:04:21.744Z,101154.38
2023-11-23T18:06:47.987Z,101148.31
2023-11-23T18:09:14.464Z,101151.59
2023-11-23T18:11:40.770Z,101160.13
2023-11-23T18:14:06.995Z,101155.63
2023-11-23T18:16:33.247Z,101152.88
2023-11-23T18:18:59.510Z,101155.50
2023-11-23T18:21:25.956Z,101137.34
2023-11-23T18:23:52.191Z,101123.47
2023-11-23T18:26:18.509Z,101128.06
2023-11-23T18:28:44.836Z,101123.56
2023-11-23T18:31:12.197Z,101116.59
2023-11-23T18:33:38.667Z,101105.38
2023-11-23T18:36:04.943Z,101095.81
2023-11-23T18:38:31.156Z,101088.03
2023-11-23T18:40:57.365Z,101065.66
2023-11-23T18:43:23.546Z,101058.56
2023-11-23T18:45:49.784Z,101051.72
2023-11-23T18:48:16.052Z,101053.44
2023-11-23T18:50:42.289Z,101039.47
2023-11-23T18:53:08.629Z,101043.84
2023-11-23T18:55:34.891Z,101038.59
2023-11-23T18:58:01.294Z,101031.50
2023-11-23T19:00:27.563Z,101034.97
2023-11-23T19:02:53.906Z,101041.88
2023-11-23T19:05:20.272Z,101033.91
2023-11-23T19:07:46.512Z,101047.75
2023-11-23T19:10:12.703Z,101051.19
2023-11-23T19:12:42.023Z,101033.06
2023-11-23T19:15:11.984Z,101021.78
2023-11-23T19:17:44.416Z,101005.25
2023-11-23T19:20:17.830Z,101012.28
2023-11-23T19:22:44.934Z,101007.19
2023-11-23T19:25:20.369Z,101007.00
2023-11-23T19:27:46.851Z,100994.81
2023-11-23T19:30:13.147Z,100991.38
2023-11-23T19:32:39.359Z,101001.75
2023-11-23T19:35:05.791Z,101014.81
2023-11-23T19:37:32.147Z,100993.19
2023-11-23T19:39:58.401Z,100993.97
2023-11-23T19:42:24.675Z,100983.50
2023-11-23T19:44:54.165Z,100986.09
2023-11-23T19:47:20.477Z,100994.00
2023-11-23T19:49:48.253Z,100996.47
2023-11-23T19:52:14.595Z,100984.47
2023-11-23T19:54:40.879Z,100980.84
2023-11-23T19:57:07.569Z,100973.94
2023-11-23T19:59:36.546Z,100970.41
2023-11-23T20:04:54.865Z,100951.38
2023-11-23T20:07:28.044Z,100945.22
2023-11-23T20:09:54.521Z,100938.28
2023-11-23T20:12:21.096Z,100933.94
2023-11-23T20:14:47.313Z,100938.19
2023-11-23T20:17:13.781Z,100932.94
2023-11-23T20:19:40.181Z,100937.97
2023-11-23T20:22:06.490Z,100927.47
2023-11-23T20:24:34.036Z,100919.72
2023-11-23T20:29:44.453Z,100911.94
2023-11-23T20:32:10.873Z,100914.44
2023-11-23T20:34:37.214Z,100904.78
2023-11-23T20:40:00.820Z,100902.19
2023-11-23T20:45:21.335Z,100899.72
2023-11-23T20:47:51.920Z,100902.25
2023-11-23T20:55:45.328Z,100890.78
2023-11-23T21:00:58.009Z,100884.75
2023-11-23T21:03:24.493Z,100877.84
2023-11-23T21:05:50.736Z,100875.34
2023-11-23T21:08:16.926Z,100867.31
2023-11-23T21:10:43.156Z,100857.94
2023-11-23T21:13:18.793Z,100868.44
2023-11-23T21:18:32.133Z,100842.50
2023-11-23T21:21:04.279Z,100828.72
2023-11-23T21:23:30.453Z,100816.50
2023-11-23T21:25:56.692Z,100825.25
2023-11-23T21:28:22.957Z,100828.81
2023-11-23T21:30:49.237Z,100815.69
2023-11-23T21:33:15.495Z,100805.44
2023-11-23T21:35:41.723Z,100807.88
2023-11-23T21:40:51.996Z,100771.91
2023-11-23T21:43:18.226Z,100773.41
2023-11-23T21:45:44.499Z,100767.63
2023-11-23T21:48:14.034Z,100762.44
2023-11-23T21:50:40.247Z,100749.50
2023-11-23T21:53:06.493Z,100751.88
2023-11-23T21:55:32.746Z,100750.16
2023-11-23T21:57:59.051Z,100747.72
2023-11-23T22:00:25.344Z,100747.81
2023-11-23T22:02:51.667Z,100751.34
2023-11-23T22:05:17.906Z,100754.78
2023-11-23T22:07:44.080Z,100750.97
2023-11-23T22:10:10.338Z,100750.13
2023-11-23T22:12:36.653Z,100744.16
2023-11-23T22:15:02.895Z,100741.66
2023-11-23T22:17:29.112Z,100737.34
2023-11-23T22:19:55.348Z,100729.59
2023-11-23T22:22:21.557Z,100718.25
2023-11-23T22:24:47.769Z,100707.88
2023-11-23T22:27:14.001Z,100725.06
2023-11-23T22:29:40.223Z,100717.47
2023-11-23T22:32:06.499Z,100697.69
2023-11-23T22:34:32.674Z,100694.38
2023-11-23T22:36:58.931Z,100695.19
2023-11-23T22:39:25.275Z,100680.44
2023-11-23T22:41:51.552Z,100672.59
2023-11-23T22:44:17.770Z,100669.09
2023-11-23T22:46:44.046Z,100669.91
2023-11-23T22:49:10.287Z,100668.75
2023-11-23T22:51:36.631Z,100662.91
2023-11-23T22:54:02.949Z,100648.88
2023-11-23T22:56:29.183Z,100633.94
2023-11-23T22:58:55.371Z,100627.88
2023-11-23T23:01:21.662Z,100616.63
2023-11-23T23:03:47.932Z,100608.84
2023-11-23T23:06:14.168Z,100613.03
2023-11-23T23:08:40.450Z,100589.66
2023-11-23T23:11:06.702Z,100581.94
2023-11-23T23:13:32.875Z,100575.84
2023-11-23T23:15:59.132Z,100566.41
2023-11-23T23:18:25.444Z,100551.78
2023-11-23T23:20:51.692Z,100543.13
2023-11-23T23:23:17.871Z,100531.75
2023-11-23T23:25:44.077Z,100524.13
2023-11-23T23:28:18.636Z,100511.16
2023-11-23T23:30:52.449Z,100506.19
2023-11-23T23:33:18.797Z,100497.47
2023-11-23T23:35:45.101Z,100494.06
2023-11-23T23:38:11.346Z,100489.69
2023-11-23T23:40:37.548Z,100492.34
2023-11-23T23:43:03.744Z,100487.28
2023-11-23T23:45:29.996Z,100476.00
2023-11-23T23:47:56.226Z,100468.13
2023-11-23T23:50:22.393Z,100462.22
2023-11-23T23:52:48.630Z,100466.63
2023-11-23T23:55:14.820Z,100459.75
2023-11-23T23:57:41.157Z,100455.50
